Time;durP1;ratioP1;P1;durP2;ratioP2;P2;SDS_P1;SDS_P2;PMS_P1;PMS_P2;Temp;Humidity;BMP_temperature;BMP_pressure;BME280_temperature;BME280_humidity;BME280_pressure;Samples;Min_cycle;Max_cycle;Signal;HPM_P1;HPM_P2
2022/05/28 00:00:57;;;;;;;13.43;3.60;;;;;;;9.76;74.03;102055.16;5090522;27;20043;-83
2022/05/28 00:03:24;;;;;;;14.17;3.67;;;;;;;9.71;73.98;102064.81;5090640;27;20031;-83
2022/05/28 00:05:50;;;;;;;16.40;4.00;;;;;;;9.70;74.69;102055.03;5089114;27;20387;-85
2022/05/28 00:08:16;;;;;;;12.67;3.50;;;;;;;9.73;74.56;102058.19;5090672;27;20069;-84
2022/05/28 00:10:43;;;;;;;14.60;3.70;;;;;;;9.68;74.68;102052.47;5090591;27;20108;-86
2022/05/28 00:13:09;;;;;;;15.60;3.63;;;;;;;9.71;74.74;102046.72;5074995;27;20283;-83
2022/05/28 00:15:34;;;;;;;16.83;4.17;;;;;;;9.71;75.13;102043.16;5090127;27;20032;-83
2022/05/28 00:18:00;;;;;;;14.47;3.90;;;;;;;9.72;74.71;102045.69;5070152;27;20032;-87
2022/05/28 00:20:26;;;;;;;12.67;3.83;;;;;;;9.69;75.14;102034.38;5089081;27;20058;-87
2022/05/28 00:22:52;;;;;;;14.33;3.80;;;;;;;9.75;74.62;102042.66;5075364;27;20031;-84
2022/05/28 00:25:18;;;;;;;15.03;3.93;;;;;;;9.77;75.25;102042.47;5090313;27;20448;-85
2022/05/28 00:27:44;;;;;;;17.00;4.87;;;;;;;9.72;75.08;102034.03;5089095;27;20073;-84
2022/05/28 00:30:13;;;;;;;13.93;4.00;;;;;;;9.78;75.03;102038.75;5089317;27;21313;-84
2022/05/28 00:32:40;;;;;;;14.20;3.60;;;;;;;9.82;74.98;102037.38;5079910;27;20085;-85
2022/05/28 00:35:09;;;;;;;15.97;4.17;;;;;;;9.85;74.91;102038.88;5088880;27;21410;-83
2022/05/28 00:37:34;;;;;;;15.87;4.00;;;;;;;9.86;75.30;102027.88;5089478;27;20055;-83
2022/05/28 00:40:01;;;;;;;17.57;4.40;;;;;;;9.90;75.02;102039.16;5070904;27;20039;-83
2022/05/28 00:42:27;;;;;;;12.17;3.83;;;;;;;9.94;74.87;102040.50;5088973;27;20043;-84
2022/05/28 00:44:52;;;;;;;14.47;4.17;;;;;;;9.91;75.23;102027.31;5089570;27;20101;-85
2022/05/28 00:47:18;;;;;;;16.13;3.70;;;;;;;10.00;74.64;102033.53;5070633;27;20164;-84
2022/05/28 00:49:44;;;;;;;15.83;4.13;;;;;;;10.00;74.62;102015.44;5088773;27;20062;-84
2022/05/28 00:52:09;;;;;;;15.73;4.20;;;;;;;10.00;74.80;102014.59;5089034;27;20485;-85
2022/05/28 00:54:42;;;;;;;17.33;4.80;;;;;;;10.11;74.54;102022.28;5089394;27;20113;-84
2022/05/28 00:57:10;;;;;;;16.00;3.83;;;;;;;10.00;74.64;102010.00;5088609;27;20035;-84
2022/05/28 00:59:35;;;;;;;16.10;3.93;;;;;;;10.13;74.49;102029.22;5089470;27;20043;-83
2022/05/28 01:02:21;;;;;;;13.30;4.27;;;;;;;10.06;74.52;102013.84;5088917;27;20049;-83
2022/05/28 01:04:50;;;;;;;14.77;3.83;;;;;;;10.08;75.02;102023.50;5088910;27;20032;-84
2022/05/28 01:07:34;;;;;;;13.77;3.90;;;;;;;10.11;75.06;102025.84;5070674;27;20028;-84
2022/05/28 01:10:05;;;;;;;15.55;3.65;;;;;;;10.08;75.09;102023.50;5088847;27;20042;-83
2022/05/28 01:12:42;;;;;;;13.80;4.13;;;;;;;10.05;75.35;102029.28;5089148;27;20047;-84
2022/05/28 01:15:08;;;;;;;15.30;4.00;;;;;;;10.07;75.31;102027.22;5089033;27;20472;-86
2022/05/28 01:17:39;;;;;;;16.67;4.27;;;;;;;10.01;75.34;102009.00;5088331;27;20035;-84
2022/05/28 01:20:15;;;;;;;16.83;4.20;;;;;;;10.01;75.55;102000.88;5070161;28;20052;-85
2022/05/28 01:23:31;;;;;;;16.03;4.17;;;;;;;10.09;75.38;102016.19;5068272;28;20036;-84
2022/05/28 01:26:11;;;;;;;14.27;4.33;;;;;;;10.04;75.74;102013.22;5030763;28;20389;-87
2022/05/28 01:28:40;;;;;;;13.87;4.43;;;;;;;9.93;75.94;102007.16;5063892;28;20040;-85
2022/05/28 01:31:08;;;;;;;12.57;4.00;;;;;;;10.00;76.10;102020.84;5068462;28;20032;-85
2022/05/28 01:33:41;;;;;;;14.40;4.17;;;;;;;9.97;76.23;102021.22;5067701;28;20587;-85
2022/05/28 01:36:09;;;;;;;16.80;4.60;;;;;;;9.90;76.52;102015.66;5068554;28;20035;-84
2022/05/28 01:38:37;;;;;;;18.73;4.60;;;;;;;9.88;76.95;102016.84;5067899;28;20372;-83
2022/05/28 01:41:06;;;;;;;17.33;4.70;;;;;;;9.85;77.09;102014.53;5067771;28;20039;-86
2022/05/28 01:43:34;;;;;;;14.67;4.30;;;;;;;9.84;77.11;102010.94;5067592;28;20032;-84
2022/05/28 01:46:00;;;;;;;17.03;4.93;;;;;;;9.84;77.31;102016.34;5068353;28;20376;-84
2022/05/28 01:48:27;;;;;;;17.90;4.57;;;;;;;9.81;77.45;102019.44;5067563;28;20040;-84
2022/05/28 01:50:54;;;;;;;15.53;5.27;;;;;;;9.78;77.63;102017.91;5066625;28;20036;-85
2022/05/28 01:56:06;;;;;;;12.87;4.30;;;;;;;9.72;78.02;101999.69;5068399;28;20492;-83
2022/05/28 01:58:32;;;;;;;16.97;4.77;;;;;;;9.76;78.54;102017.28;5068015;28;20067;-85
2022/05/28 02:00:59;;;;;;;15.40;4.37;;;;;;;9.72;78.89;102015.91;5067209;28;20379;-84
2022/05/28 02:03:25;;;;;;;18.27;4.70;;;;;;;9.72;79.33;102017.78;5068987;28;20036;-85
2022/05/28 02:05:51;;;;;;;17.17;4.40;;;;;;;9.73;79.33;102024.91;5068060;28;20460;-82
2022/05/28 02:08:16;;;;;;;15.60;4.43;;;;;;;9.69;79.40;102012.75;5067085;28;20036;-84
2022/05/28 02:10:47;;;;;;;14.03;4.30;;;;;;;9.63;79.56;102008.88;5065455;28;20162;-83
2022/05/28 02:13:28;;;;;;;17.57;4.60;;;;;;;9.70;79.59;102014.44;5067915;28;20028;-84
2022/05/28 02:16:13;;;;;;;16.57;4.60;;;;;;;9.74;79.93;102011.19;5067114;28;20033;-84
2022/05/28 02:18:48;;;;;;;14.07;4.40;;;;;;;9.73;80.22;102017.59;5067646;28;20041;-85
2022/05/28 02:21:20;;;;;;;;;;;;;;;9.82;79.09;102006.72;5068459;28;20411;-85
2022/05/28 02:23:58;;;;;;;15.97;4.30;;;;;;;9.82;80.03;102010.31;5067281;28;19924;-85
2022/05/28 02:26:35;;;;;;;15.37;4.30;;;;;;;9.86;80.43;102010.75;5066112;28;20032;-82
2022/05/28 02:29:01;;;;;;;12.20;3.93;;;;;;;9.87;81.01;102009.75;5067004;28;20029;-84
2022/05/28 02:31:32;;;;;;;14.07;4.40;;;;;;;9.91;81.20;102002.97;5067545;28;20032;-85
2022/05/28 02:33:58;;;;;;;18.87;4.77;;;;;;;9.92;80.76;102004.66;5065600;28;20044;-84
2022/05/28 02:36:24;;;;;;;13.63;4.13;;;;;;;9.92;80.47;102000.06;5067888;28;20369;-85
2022/05/28 02:38:49;;;;;;;19.40;4.30;;;;;;;9.85;80.61;101996.41;5066866;28;20098;-84
2022/05/28 02:41:15;;;;;;;12.87;4.10;;;;;;;9.78;80.24;101995.44;5067950;28;20506;-83
2022/05/28 02:43:40;;;;;;;12.97;4.20;;;;;;;9.67;80.28;101987.69;5067238;28;20048;-84
2022/05/28 02:46:07;;;;;;;16.87;4.33;;;;;;;9.59;80.64;101981.31;5067460;28;20191;-84
2022/05/28 02:48:33;;;;;;;16.20;4.50;;;;;;;9.55;80.98;101979.16;5067265;28;20548;-84
2022/05/28 02:51:11;;;;;;;15.57;4.47;;;;;;;9.43;81.41;101973.28;5069747;28;20131;-86
2022/05/28 02:53:37;;;;;;;16.03;4.50;;;;;;;9.45;81.57;101979.34;5067352;28;20446;-85
2022/05/28 02:56:04;;;;;;;11.33;4.07;;;;;;;9.42;81.80;101977.00;5065813;28;20472;-84
2022/05/28 02:58:29;;;;;;;16.50;4.50;;;;;;;9.36;81.97;101980.44;5067289;28;20119;-85
2022/05/28 03:00:55;;;;;;;14.60;4.57;;;;;;;9.32;82.29;101979.94;5066449;28;20036;-85
2022/05/28 03:03:20;;;;;;;15.40;4.80;;;;;;;9.26;82.48;101984.19;5071087;28;20124;-85
2022/05/28 03:05:47;;;;;;;14.33;4.73;;;;;;;9.29;83.05;101991.94;5070585;28;20056;-87
2022/05/28 03:08:13;;;;;;;18.70;4.80;;;;;;;9.16;83.18;101975.44;5071403;28;20035;-83
2022/05/28 03:10:38;;;;;;;13.47;4.53;;;;;;;9.28;83.44;101984.84;5071485;28;20044;-83
2022/05/28 03:13:03;;;;;;;15.53;4.70;;;;;;;9.32;84.01;101992.63;5069816;28;20039;-84
2022/05/28 03:15:29;;;;;;;13.03;4.10;;;;;;;9.33;84.08;101992.44;5069947;28;20047;-83
2022/05/28 03:17:55;;;;;;;20.17;4.57;;;;;;;9.38;84.55;101994.59;5070692;28;20109;-82
2022/05/28 03:20:21;;;;;;;15.33;3.80;;;;;;;9.44;84.77;101993.94;5084326;27;20056;-83
2022/05/28 03:22:46;;;;;;;13.70;3.70;;;;;;;9.40;84.84;101985.31;5091741;27;20048;-83
2022/05/28 03:25:12;;;;;;;12.70;4.20;;;;;;;9.43;85.36;101992.22;5091191;27;20088;-84
2022/05/28 03:27:37;;;;;;;12.00;4.07;;;;;;;9.49;85.36;101999.63;5089986;27;20130;-83
2022/05/28 03:30:04;;;;;;;15.57;3.90;;;;;;;9.49;85.57;101994.22;5090911;27;20031;-83
2022/05/28 03:32:29;;;;;;;13.77;3.63;;;;;;;9.38;85.64;101978.38;5091169;27;20421;-85
2022/05/28 03:34:54;;;;;;;14.13;4.03;;;;;;;9.54;85.71;102005.34;5090033;27;20024;-84
2022/05/28 03:37:20;;;;;;;14.97;4.10;;;;;;;9.44;85.95;101993.94;5072098;27;20035;-85
2022/05/28 03:39:45;;;;;;;14.70;4.30;;;;;;;9.50;86.03;102004.03;5090743;27;20040;-84
2022/05/28 03:42:10;;;;;;;15.03;3.60;;;;;;;9.49;86.38;102002.31;5089642;27;20040;-84
2022/05/28 03:44:36;;;;;;;15.30;3.73;;;;;;;9.45;86.36;101990.19;5090585;27;20280;-86
2022/05/28 03:47:03;;;;;;;16.63;3.80;;;;;;;9.47;86.80;102004.38;5090649;27;20648;-86
2022/05/28 03:49:32;;;;;;;15.00;4.00;;;;;;;9.49;86.68;102006.91;5089437;27;20035;-83
2022/05/28 03:51:58;;;;;;;12.27;3.63;;;;;;;9.43;87.19;102001.19;5090109;27;20114;-84
2022/05/28 03:54:24;;;;;;;16.53;3.90;;;;;;;9.47;87.17;102001.69;5090430;27;20479;-83
2022/05/28 03:56:53;;;;;;;16.63;3.57;;;;;;;9.50;87.17;102008.59;5089691;27;20035;-84
2022/05/28 03:59:18;;;;;;;15.77;3.90;;;;;;;9.37;87.36;101984.81;5089927;27;20036;-83
2022/05/28 04:01:44;;;;;;;17.37;3.60;;;;;;;9.52;87.78;102006.53;5090389;27;20058;-84
2022/05/28 04:04:09;;;;;;;19.47;3.90;;;;;;;9.53;87.79;102017.19;5089760;27;20402;-83
2022/05/28 04:06:36;;;;;;;14.93;3.40;;;;;;;9.54;87.98;102027.00;5089856;27;20054;-84
2022/05/28 04:09:06;;;;;;;16.03;3.57;;;;;;;9.56;87.94;102016.84;5074884;28;20035;-84
2022/05/28 04:11:32;;;;;;;17.73;3.90;;;;;;;9.51;88.54;102013.00;5080737;27;20038;-84
2022/05/28 04:13:57;;;;;;;15.43;3.87;;;;;;;9.54;88.49;102027.00;5088764;27;20031;-84
2022/05/28 04:16:24;;;;;;;15.13;3.70;;;;;;;9.59;88.49;102019.19;5089633;27;20081;-84
2022/05/28 04:18:50;;;;;;;15.83;4.40;;;;;;;9.56;88.62;102014.16;5070117;27;20178;-83
2022/05/28 04:21:15;;;;;;;13.70;3.60;;;;;;;9.65;88.81;102023.06;5089536;27;20040;-83
2022/05/28 04:23:41;;;;;;;14.90;3.70;;;;;;;9.68;88.99;102022.69;5089646;27;20434;-84
2022/05/28 04:26:06;;;;;;;15.97;3.60;;;;;;;9.73;88.76;102022.19;5089245;27;20044;-83
2022/05/28 04:28:32;;;;;;;17.60;3.40;;;;;;;9.79;88.61;102024.16;5088820;27;20058;-83
2022/05/28 04:30:57;;;;;;;19.80;4.00;;;;;;;9.83;88.74;102025.50;5089285;27;20390;-84
2022/05/28 04:33:23;;;;;;;14.93;3.33;;;;;;;9.92;88.88;102021.72;5088775;27;20483;-82
2022/05/28 04:35:48;;;;;;;17.27;3.30;;;;;;;9.98;88.67;102031.00;5088686;27;20498;-84
2022/05/28 04:38:13;;;;;;;19.17;3.70;;;;;;;10.02;88.88;102028.78;5089571;27;20043;-84
2022/05/28 04:40:39;;;;;;;19.27;3.73;;;;;;;10.08;88.67;102026.19;5079553;27;20043;-84
2022/05/28 04:43:05;;;;;;;19.90;3.57;;;;;;;10.16;88.66;102036.16;5085648;27;20135;-83
2022/05/28 04:45:30;;;;;;;16.53;3.20;;;;;;;10.21;88.32;102033.72;5088788;27;20068;-84
2022/05/28 04:47:56;;;;;;;18.03;3.43;;;;;;;10.29;88.48;102040.94;5069507;27;20471;-83
2022/05/28 04:50:22;;;;;;;14.37;3.40;;;;;;;10.33;88.17;102038.72;5070365;27;20040;-84
2022/05/28 04:52:47;;;;;;;18.27;3.70;;;;;;;10.38;87.51;102033.66;5089045;27;20036;-84
2022/05/28 04:55:13;;;;;;;16.83;3.53;;;;;;;10.38;87.49;102034.47;5089135;27;20040;-84
2022/05/28 04:57:39;;;;;;;15.03;3.23;;;;;;;10.47;86.92;102032.53;5089112;27;20036;-84
2022/05/28 05:00:13;;;;;;;12.67;3.10;;;;;;;10.51;86.46;102041.16;5069047;27;20031;-83
2022/05/28 05:02:38;;;;;;;15.60;3.08;;;;;;;10.56;86.10;102036.88;5088587;27;20505;-84
2022/05/28 05:05:04;;;;;;;14.20;2.80;;;;;;;10.62;85.59;102044.28;5088884;27;20633;-83
2022/05/28 05:07:30;;;;;;;14.33;2.63;;;;;;;10.69;84.96;102044.41;5088085;27;20070;-83
2022/05/28 05:09:55;;;;;;;12.70;2.40;;;;;;;10.70;82.90;102045.22;5088320;27;20045;-82
2022/05/28 05:12:20;;;;;;;11.53;2.60;;;;;;;10.77;82.33;102054.31;5070319;27;20028;-84
2022/05/28 05:14:46;;;;;;;13.53;2.30;;;;;;;10.81;82.04;102056.47;5088262;27;20039;-85
2022/05/28 05:17:11;;;;;;;13.43;2.40;;;;;;;10.88;81.52;102066.56;5085713;27;20065;-83
2022/05/28 05:19:36;;;;;;;13.03;2.47;;;;;;;10.85;81.21;102054.22;5050909;27;20139;-87
2022/05/28 05:22:02;;;;;;;10.20;2.20;;;;;;;10.95;79.67;102062.94;5068605;27;20036;-84
2022/05/28 05:24:27;;;;;;;11.93;2.90;;;;;;;11.00;80.58;102069.69;5072214;27;20043;-83
2022/05/28 05:26:53;;;;;;;11.80;2.40;;;;;;;11.03;80.13;102072.03;5089008;27;20388;-84
2022/05/28 05:29:18;;;;;;;14.83;2.40;;;;;;;11.11;79.88;102066.50;5069440;28;20071;-83
2022/05/28 05:31:44;;;;;;;11.90;2.20;;;;;;;11.05;78.40;102062.69;5070381;27;20059;-83
2022/05/28 05:34:09;;;;;;;11.30;2.37;;;;;;;11.13;78.30;102070.72;5088050;27;20313;-86
2022/05/28 05:36:36;;;;;;;9.67;2.00;;;;;;;11.20;78.03;102064.56;5088130;27;20383;-83
2022/05/28 05:39:02;;;;;;;7.70;1.90;;;;;;;11.18;77.46;102051.19;5087932;27;20038;-84
2022/05/28 05:41:27;;;;;;;9.63;2.00;;;;;;;11.28;77.87;102059.06;5088063;27;20063;-82
2022/05/28 05:43:53;;;;;;;9.00;1.90;;;;;;;11.38;77.54;102069.63;5087762;27;20028;-82
2022/05/28 05:46:18;;;;;;;10.73;2.10;;;;;;;11.39;76.76;102063.19;5087745;27;20039;-85
2022/05/28 05:48:44;;;;;;;11.10;2.10;;;;;;;11.43;76.49;102067.19;5088241;27;20047;-83
2022/05/28 05:51:12;;;;;;;11.80;2.57;;;;;;;11.40;76.33;102056.72;5086622;27;20456;-83
2022/05/28 05:53:38;;;;;;;8.07;1.87;;;;;;;11.56;76.11;102070.09;5087880;27;20038;-86
2022/05/28 05:56:04;;;;;;;8.93;1.90;;;;;;;11.54;74.59;102069.44;5088202;27;20048;-84
2022/05/28 05:58:29;;;;;;;11.53;2.00;;;;;;;11.63;74.42;102079.16;5087848;28;20024;-83
2022/05/28 06:00:54;;;;;;;11.30;2.00;;;;;;;11.79;74.97;102075.41;5072823;27;20046;-82
2022/05/28 06:03:20;;;;;;;8.57;1.97;;;;;;;11.78;74.33;102078.31;5087576;27;20040;-78
2022/05/28 06:05:45;;;;;;;8.50;2.00;;;;;;;11.80;72.62;102076.22;5087833;27;20086;-84
2022/05/28 06:08:11;;;;;;;10.30;1.93;;;;;;;11.83;72.85;102079.44;5068375;28;20038;-82
2022/05/28 06:10:37;;;;;;;9.83;1.90;;;;;;;11.86;71.58;102075.50;5068569;28;20039;-84
2022/05/28 06:13:02;;;;;;;8.23;1.57;;;;;;;11.91;71.56;102080.34;5087916;27;20066;-83
2022/05/28 06:15:28;;;;;;;8.87;1.70;;;;;;;12.01;70.72;102072.78;5087699;28;20077;-82
2022/05/28 06:17:53;;;;;;;8.03;1.90;;;;;;;12.05;70.20;102079.50;5087095;28;20032;-83
2022/05/28 06:20:19;;;;;;;9.43;1.80;;;;;;;12.05;69.61;102089.50;5087813;28;20463;-82
2022/05/28 06:22:44;;;;;;;10.57;1.90;;;;;;;12.12;69.03;102083.13;5087550;28;20054;-83
2022/05/28 06:25:10;;;;;;;9.37;2.03;;;;;;;12.26;70.73;102086.81;5087048;28;20043;-83
2022/05/28 06:27:36;;;;;;;8.73;1.77;;;;;;;12.27;69.28;102082.25;5072471;28;20039;-83
2022/05/28 06:30:01;;;;;;;8.77;1.93;;;;;;;12.41;69.49;102080.50;5078193;28;20040;-81
2022/05/28 06:32:27;;;;;;;9.10;1.90;;;;;;;12.56;67.23;102086.72;5086746;28;20035;-83
2022/05/28 06:34:54;;;;;;;8.90;1.83;;;;;;;12.75;67.93;102092.53;5078380;28;20777;-81
2022/05/28 06:37:19;;;;;;;10.40;2.07;;;;;;;12.72;68.08;102090.22;5091310;27;20070;-82
2022/05/28 06:39:45;;;;;;;10.73;2.13;;;;;;;12.90;68.82;102087.84;5090920;27;20646;-86
2022/05/28 06:42:10;;;;;;;5.80;1.87;;;;;;;13.00;67.78;102098.38;5072442;27;20035;-83
2022/05/28 06:44:35;;;;;;;7.13;1.70;;;;;;;12.87;65.68;102093.69;5091264;27;20042;-83
2022/05/28 06:47:03;;;;;;;10.43;2.00;;;;;;;12.87;64.93;102092.84;5091588;27;20115;-82
2022/05/28 06:49:29;;;;;;;9.87;1.93;;;;;;;12.81;65.19;102103.47;5091027;27;20043;-82
2022/05/28 06:51:55;;;;;;;7.00;2.10;;;;;;;12.75;65.77;102112.41;5091195;27;20055;-81
2022/05/28 06:54:20;;;;;;;10.40;2.10;;;;;;;12.69;65.91;102099.59;5075716;27;20040;-83
2022/05/28 06:56:45;;;;;;;11.33;2.10;;;;;;;12.86;65.18;102099.31;5071618;27;20039;-83
2022/05/28 06:59:11;;;;;;;8.10;1.93;;;;;;;12.96;63.70;102097.09;5091136;27;20126;-85
2022/05/28 07:01:36;;;;;;;10.13;2.03;;;;;;;13.12;65.31;102098.69;5088602;27;20124;-84
2022/05/28 07:04:03;;;;;;;9.30;2.07;;;;;;;13.08;64.84;102103.69;5069753;27;20040;-83
2022/05/28 07:06:29;;;;;;;8.90;1.90;;;;;;;13.10;62.80;102107.06;5088787;27;20336;-84
2022/05/28 07:08:55;;;;;;;10.00;1.97;;;;;;;13.14;63.90;102105.59;5088406;27;20158;-82
2022/05/28 07:11:20;;;;;;;6.53;1.80;;;;;;;13.30;64.08;102109.91;5070221;27;20036;-83
2022/05/28 07:13:46;;;;;;;5.53;1.70;;;;;;;13.37;62.94;102099.09;5088536;27;20043;-83
2022/05/28 07:16:11;;;;;;;7.53;1.80;;;;;;;13.26;61.86;102103.19;5088934;27;20685;-85
2022/05/28 07:18:38;;;;;;;8.70;1.50;;;;;;;13.26;62.00;102108.63;5088371;27;20154;-80
2022/05/28 07:24:44;;;;;;;10.97;1.70;;;;;;;13.79;61.66;102110.00;5067887;27;20242;-82
2022/05/28 07:27:11;;;;;;;17.80;2.10;;;;;;;14.04;62.81;102109.50;5061658;28;20036;-80
2022/05/28 07:29:37;;;;;;;6.93;1.50;;;;;;;13.99;59.28;102113.66;5097844;28;20036;-82
2022/05/28 07:32:03;;;;;;;7.93;1.57;;;;;;;13.91;56.43;102108.41;5067508;28;20024;-83
2022/05/28 07:34:28;;;;;;;8.43;2.10;;;;;;;13.81;54.93;102111.47;5049521;28;20801;-83
2022/05/28 07:36:53;;;;;;;6.23;1.33;;;;;;;13.84;55.47;102121.13;5049404;28;20082;-83
2022/05/28 07:39:19;;;;;;;7.17;1.63;;;;;;;14.06;57.59;102110.13;5067349;28;20545;-83
2022/05/28 07:41:44;;;;;;;8.10;1.80;;;;;;;14.05;56.58;102113.88;5065543;28;20032;-82
2022/05/28 07:44:10;;;;;;;3.67;1.20;;;;;;;13.94;54.26;102108.00;5067165;28;20064;-82
2022/05/28 07:46:35;;;;;;;4.60;1.40;;;;;;;14.04;54.22;102112.22;5070210;28;20117;-88
2022/05/28 07:49:04;;;;;;;8.60;1.70;;;;;;;14.17;56.02;102114.97;5084412;28;20039;-88
2022/05/28 07:51:30;;;;;;;4.77;1.57;;;;;;;14.38;56.56;102113.16;5068878;28;20036;-89
2022/05/28 07:53:56;;;;;;;6.27;1.20;;;;;;;14.54;54.86;102118.22;5070230;28;20078;-88
2022/05/28 07:56:21;;;;;;;4.63;1.50;;;;;;;14.52;51.74;102110.25;5068594;28;20379;-88
2022/05/28 07:58:47;;;;;;;6.90;1.30;;;;;;;14.40;52.69;102111.06;5066422;28;20039;-88
2022/05/28 08:01:23;;;;;;;18.03;2.30;;;;;;;14.61;54.43;102110.06;5064613;28;20133;-88
2022/05/28 08:03:49;;;;;;;6.07;1.40;;;;;;;14.53;51.35;102119.25;5060976;28;20649;-88
2022/05/28 08:06:15;;;;;;;8.40;1.53;;;;;;;14.66;52.97;102116.59;5066642;28;20064;-85
2022/05/28 08:08:41;;;;;;;6.70;1.60;;;;;;;14.74;52.98;102110.09;5068539;28;20383;-90
2022/05/28 08:11:08;;;;;;;8.07;1.70;;;;;;;14.90;53.89;102106.09;5067505;28;20024;-89
2022/05/28 08:13:34;;;;;;;12.80;2.43;;;;;;;15.12;53.36;102095.81;5042518;28;20024;-88
2022/05/28 08:16:00;;;;;;;11.97;1.80;;;;;;;15.14;51.64;102106.53;5066913;28;20048;-87
2022/05/28 08:18:26;;;;;;;6.67;1.60;;;;;;;15.29;52.64;102104.38;5061661;28;20069;-87
2022/05/28 08:23:38;;;;;;;7.93;1.60;;;;;;;15.95;50.54;102110.75;5066443;28;20082;-87
2022/05/28 08:26:04;;;;;;;7.40;1.70;;;;;;;16.08;50.99;102103.56;5062366;28;20035;-86
2022/05/28 08:28:29;;;;;;;5.60;1.33;;;;;;;16.21;49.88;102103.47;5067431;28;20032;-87
2022/05/28 08:30:55;;;;;;;6.10;1.53;;;;;;;16.42;49.84;102104.19;5064834;28;20032;-87
2022/05/28 08:33:21;;;;;;;7.07;1.50;;;;;;;16.41;48.54;102100.59;5066060;28;20036;-86
2022/05/28 08:35:50;;;;;;;4.93;1.53;;;;;;;16.32;48.24;102099.19;5029739;28;20139;-87
2022/05/28 08:38:18;;;;;;;6.07;1.40;;;;;;;16.01;48.93;102107.13;5054070;28;20033;-87
2022/05/28 08:40:49;;;;;;;9.83;1.90;;;;;;;15.64;50.29;102112.31;5050570;28;20058;-87
2022/05/28 08:43:16;;;;;;;6.27;1.70;;;;;;;15.26;49.53;102102.09;5053362;28;20032;-87
2022/05/28 08:45:44;;;;;;;9.37;1.67;;;;;;;14.99;52.34;102115.75;5053522;28;20032;-86
2022/05/28 08:48:12;;;;;;;5.50;1.47;;;;;;;14.89;52.20;102112.63;5047373;28;20029;-87
2022/05/28 08:51:00;;;;;;;6.93;1.60;;;;;;;14.75;49.92;102111.75;5048571;28;20028;-87
2022/05/28 08:53:30;;;;;;;5.77;1.50;;;;;;;14.77;47.30;102108.81;5057075;28;20028;-87
2022/05/28 08:55:58;;;;;;;6.47;1.60;;;;;;;15.02;47.58;102107.13;5057250;28;20124;-88
2022/05/28 08:58:29;;;;;;;6.03;1.50;;;;;;;15.32;49.48;102120.34;5057812;28;20293;-89
2022/05/28 09:01:16;;;;;;;5.67;1.63;;;;;;;15.79;49.35;102108.44;5058839;28;20057;-89
2022/05/28 09:03:54;;;;;;;7.90;1.70;;;;;;;15.86;46.58;102109.31;5056256;28;20028;-87
2022/05/28 09:06:31;;;;;;;5.43;1.43;;;;;;;16.01;47.84;102112.59;5060279;28;20035;-88
2022/05/28 09:08:56;;;;;;;8.30;1.47;;;;;;;16.08;46.66;102112.56;5057403;28;20028;-87
2022/05/28 09:11:34;;;;;;;9.57;2.00;;;;;;;16.09;45.49;102108.78;5050759;28;20032;-88
2022/05/28 09:14:17;;;;;;;7.67;1.90;;;;;;;16.51;47.16;102095.50;5048711;28;20024;-89
2022/05/28 09:16:45;;;;;;;6.63;1.60;;;;;;;16.99;46.76;102107.78;5057013;28;20056;-87
2022/05/28 09:19:18;;;;;;;5.50;1.60;;;;;;;16.83;42.69;102108.31;5058035;28;20107;-86
2022/05/28 09:21:44;;;;;;;6.10;1.50;;;;;;;17.01;42.98;102102.94;5057302;28;20047;-85
2022/05/28 09:24:16;;;;;;;5.15;1.48;;;;;;;17.25;42.48;102108.59;5055686;28;20648;-86
2022/05/28 09:27:05;;;;;;;5.13;1.58;;;;;;;17.99;44.48;102092.19;5057111;28;20029;-87
2022/05/28 09:29:31;;;;;;;5.90;1.30;;;;;;;18.59;42.05;102092.38;5057598;28;20146;-87
2022/05/28 09:32:21;;;;;;;4.82;1.33;;;;;;;18.40;43.33;102108.94;5056360;28;20399;-87
2022/05/28 09:35:20;;;;;;;5.13;1.45;;;;;;;17.83;43.00;102099.09;5063520;28;20028;-87
2022/05/28 09:38:11;;;;;;;10.60;1.90;;;;;;;16.91;43.82;102108.06;5057592;28;20086;-84
2022/05/28 09:40:51;;;;;;;12.30;1.90;;;;;;;16.52;45.21;102101.78;5058144;28;20028;-84
2022/05/28 09:43:43;;;;;;;8.30;2.15;;;;;;;16.35;46.32;102102.31;5052489;28;20025;-85
2022/05/28 09:46:43;;;;;;;9.30;2.05;;;;;;;16.63;46.00;102101.09;5057819;28;20093;-84
2022/05/28 09:49:18;;;;;;;9.13;1.80;;;;;;;17.08;47.47;102097.41;5057181;28;20547;-84
2022/05/28 09:51:55;;;;;;;6.33;1.77;;;;;;;17.10;45.11;102098.00;5057266;28;20031;-84
2022/05/28 09:54:30;;;;;;;6.30;2.00;;;;;;;17.27;44.99;102090.06;5055280;28;20050;-84
2022/05/28 09:57:19;;;;;;;9.13;1.95;;;;;;;17.19;46.17;102104.03;5057053;28;20526;-84
2022/05/28 09:59:49;;;;;;;8.55;1.70;;;;;;;16.95;42.21;102087.38;5057703;28;20483;-84
2022/05/28 10:02:24;;;;;;;7.35;1.98;;;;;;;17.04;44.86;102096.19;5057334;28;20064;-84
2022/05/28 10:04:55;;;;;;;8.18;1.83;;;;;;;16.99;44.24;102079.56;5057434;28;20059;-84
2022/05/28 10:07:42;;;;;;;7.03;1.80;;;;;;;16.96;43.20;102091.81;5050589;28;20024;-84
2022/05/28 10:10:20;;;;;;;7.07;1.60;;;;;;;16.70;41.74;102098.31;5058047;28;21023;-84
2022/05/28 10:12:46;;;;;;;8.23;1.80;;;;;;;16.77;42.96;102074.47;5057283;28;20020;-84
2022/05/28 10:15:18;;;;;;;6.30;1.77;;;;;;;16.68;44.55;102076.63;5057375;28;20028;-85
2022/05/28 10:17:54;;;;;;;7.30;1.90;;;;;;;16.61;42.24;102089.53;5054500;28;20023;-83
2022/05/28 10:20:21;;;;;;;6.77;1.50;;;;;;;16.34;39.04;102081.50;5058218;28;20206;-84
2022/05/28 10:22:49;;;;;;;4.77;1.30;;;;;;;16.12;39.51;102085.66;5057529;28;20076;-84
2022/05/28 10:25:41;;;;;;;5.70;1.57;;;;;;;16.84;42.70;102074.41;5056398;28;20024;-84
2022/05/28 10:28:09;;;;;;;6.80;1.60;;;;;;;16.96;39.81;102078.13;5052692;28;20385;-82
2022/05/28 10:30:38;;;;;;;5.57;1.40;;;;;;;17.34;40.91;102066.16;5050091;28;20085;-84
2022/05/28 10:33:16;;;;;;;6.60;1.50;;;;;;;17.40;38.76;102075.38;5055015;28;20048;-82
2022/05/28 10:35:42;;;;;;;5.10;1.48;;;;;;;17.53;39.56;102077.13;5054806;28;20020;-82
2022/05/28 10:38:23;;;;;;;5.13;1.40;;;;;;;17.93;39.84;102075.81;5053228;28;20028;-82
2022/05/28 10:40:55;;;;;;;6.38;1.70;;;;;;;17.85;39.53;102074.19;5045822;28;20035;-82
2022/05/28 10:43:20;;;;;;;7.47;1.70;;;;;;;17.69;37.96;102082.00;5054896;28;20119;-82
2022/05/28 10:45:55;;;;;;;6.18;1.80;;;;;;;17.66;39.01;102085.16;5046916;28;20056;-82
2022/05/28 10:48:57;;;;;;;6.65;1.80;;;;;;;18.38;40.04;102073.47;5054933;28;20032;-82
2022/05/28 10:51:40;;;;;;;5.43;1.70;;;;;;;17.80;38.37;102061.19;5055090;28;20094;-82
2022/05/28 10:54:05;;;;;;;8.10;1.80;;;;;;;17.49;40.93;102075.91;5054786;28;20083;-82
2022/05/28 10:56:39;;;;;;;7.38;1.85;;;;;;;17.25;42.27;102064.78;5046533;28;20037;-81
2022/05/28 10:59:04;;;;;;;8.45;1.95;;;;;;;17.20;41.56;102064.59;5054818;28;20059;-82
2022/05/28 11:01:46;;;;;;;8.93;2.10;;;;;;;17.09;44.59;102065.38;5054905;28;20459;-81
2022/05/28 11:04:17;;;;;;;6.63;1.80;;;;;;;17.13;41.28;102058.38;5054954;28;20167;-82
2022/05/28 11:07:14;;;;;;;7.57;1.80;;;;;;;17.50;41.83;102066.59;5052731;28;20046;-81
2022/05/28 11:10:11;;;;;;;5.07;1.90;;;;;;;17.00;41.10;102065.66;5054005;28;20081;-81
2022/05/28 11:13:02;;;;;;;7.07;1.77;;;;;;;16.68;42.78;102062.94;5053383;28;20117;-81
2022/05/28 11:15:35;;;;;;;7.83;1.70;;;;;;;16.34;43.41;102070.56;5054809;28;20062;-81
2022/05/28 11:18:00;;;;;;;8.45;2.08;;;;;;;16.40;43.80;102070.75;5054644;28;20099;-81
2022/05/28 11:20:40;;;;;;;6.63;1.60;;;;;;;16.72;40.96;102063.34;5054656;28;20039;-81
2022/05/28 11:23:21;;;;;;;6.93;1.93;;;;;;;16.80;42.36;102054.03;5053712;28;20052;-81
2022/05/28 11:26:00;;;;;;;6.20;1.83;;;;;;;17.11;40.19;102050.38;5054339;28;20048;-82
2022/05/28 11:28:53;;;;;;;6.27;1.67;;;;;;;16.91;40.18;102049.75;5052146;28;20119;-81
2022/05/28 11:31:22;;;;;;;8.80;2.10;;;;;;;16.59;40.98;102057.97;5054529;28;20070;-82
2022/05/28 11:33:50;;;;;;;7.37;1.73;;;;;;;16.53;41.33;102051.50;5054370;28;20036;-82
2022/05/28 11:36:30;;;;;;;8.50;1.83;;;;;;;16.65;43.50;102046.16;5056451;28;21779;-81
2022/05/28 11:39:02;;;;;;;11.67;2.10;;;;;;;16.87;41.60;102046.59;5047822;28;20040;-81
2022/05/28 11:41:35;;;;;;;7.87;1.80;;;;;;;17.27;42.45;102037.16;5054511;28;20481;-82
2022/05/28 11:44:26;;;;;;;9.63;1.90;;;;;;;17.36;39.86;102036.63;5069611;28;20044;-81